sensor_id;sensor_type;location;lat;lon;timestamp;P1;durP1;ratioP1;P2;durP2;ratioP2
3726;SDS011;1879;45.876;12.300;2022-10-16T00:01:14;72.77;;;59.90;;
3726;SDS011;1879;45.876;12.300;2022-10-16T00:03:43;63.70;;;56.10;;
3726;SDS011;1879;45.876;12.300;2022-10-16T00:06:11;67.87;;;56.57;;
3726;SDS011;1879;45.876;12.300;2022-10-16T00:08:39;68.47;;;59.27;;
3726;SDS011;1879;45.876;12.300;2022-10-16T00:11:07;69.73;;;59.30;;
3726;SDS011;1879;45.876;12.300;2022-10-16T00:13:38;69.17;;;60.40;;
3726;SDS011;1879;45.876;12.300;2022-10-16T00:16:06;74.33;;;59.50;;
3726;SDS011;1879;45.876;12.300;2022-10-16T00:18:34;71.37;;;57.00;;
3726;SDS011;1879;45.876;12.300;2022-10-16T00:21:02;64.30;;;55.17;;
3726;SDS011;1879;45.876;12.300;2022-10-16T00:23:30;68.80;;;58.07;;
3726;SDS011;1879;45.876;12.300;2022-10-16T00:25:58;73.60;;;58.07;;
3726;SDS011;1879;45.876;12.300;2022-10-16T00:28:27;72.43;;;59.60;;
3726;SDS011;1879;45.876;12.300;2022-10-16T00:30:55;69.47;;;57.93;;
3726;SDS011;1879;45.876;12.300;2022-10-16T00:33:23;70.60;;;57.57;;
3726;SDS011;1879;45.876;12.300;2022-10-16T00:35:50;75.30;;;58.70;;
3726;SDS011;1879;45.876;12.300;2022-10-16T00:38:17;68.23;;;54.30;;
3726;SDS011;1879;45.876;12.300;2022-10-16T00:40:44;72.40;;;60.53;;
3726;SDS011;1879;45.876;12.300;2022-10-16T00:43:31;72.33;;;56.40;;
3726;SDS011;1879;45.876;12.300;2022-10-16T00:46:02;67.50;;;55.07;;
3726;SDS011;1879;45.876;12.300;2022-10-16T00:48:32;67.67;;;55.90;;
3726;SDS011;1879;45.876;12.300;2022-10-16T00:50:59;70.00;;;57.33;;
3726;SDS011;1879;45.876;12.300;2022-10-16T00:53:26;68.70;;;56.47;;
3726;SDS011;1879;45.876;12.300;2022-10-16T00:55:54;71.80;;;55.80;;
3726;SDS011;1879;45.876;12.300;2022-10-16T00:58:21;68.30;;;56.20;;
3726;SDS011;1879;45.876;12.300;2022-10-16T01:00:48;66.90;;;55.23;;
3726;SDS011;1879;45.876;12.300;2022-10-16T01:03:27;67.93;;;55.90;;
3726;SDS011;1879;45.876;12.300;2022-10-16T01:05:59;73.50;;;56.60;;
3726;SDS011;1879;45.876;12.300;2022-10-16T01:08:37;73.50;;;58.50;;
3726;SDS011;1879;45.876;12.300;2022-10-16T01:11:12;68.03;;;55.70;;
3726;SDS011;1879;45.876;12.300;2022-10-16T01:13:49;69.80;;;58.87;;
3726;SDS011;1879;45.876;12.300;2022-10-16T01:16:21;72.33;;;58.20;;
3726;SDS011;1879;45.876;12.300;2022-10-16T01:18:59;71.33;;;54.27;;
3726;SDS011;1879;45.876;12.300;2022-10-16T01:21:33;65.63;;;51.43;;
3726;SDS011;1879;45.876;12.300;2022-10-16T01:24:06;65.07;;;55.17;;
3726;SDS011;1879;45.876;12.300;2022-10-16T01:26:44;78.80;;;57.13;;
3726;SDS011;1879;45.876;12.300;2022-10-16T01:29:23;69.03;;;57.53;;
3726;SDS011;1879;45.876;12.300;2022-10-16T01:31:56;66.37;;;55.47;;
3726;SDS011;1879;45.876;12.300;2022-10-16T01:34:29;70.43;;;55.43;;
3726;SDS011;1879;45.876;12.300;2022-10-16T01:37:00;68.37;;;54.70;;
3726;SDS011;1879;45.876;12.300;2022-10-16T01:39:32;69.50;;;50.77;;
3726;SDS011;1879;45.876;12.300;2022-10-16T01:42:03;68.20;;;55.70;;
3726;SDS011;1879;45.876;12.300;2022-10-16T01:44:35;70.57;;;56.00;;
3726;SDS011;1879;45.876;12.300;2022-10-16T01:47:05;64.03;;;54.00;;
3726;SDS011;1879;45.876;12.300;2022-10-16T01:49:36;65.57;;;55.37;;
3726;SDS011;1879;45.876;12.300;2022-10-16T01:52:05;70.83;;;56.83;;
3726;SDS011;1879;45.876;12.300;2022-10-16T01:54:36;70.27;;;59.20;;
3726;SDS011;1879;45.876;12.300;2022-10-16T01:57:07;68.43;;;56.50;;
3726;SDS011;1879;45.876;12.300;2022-10-16T01:59:40;67.60;;;54.50;;
3726;SDS011;1879;45.876;12.300;2022-10-16T02:02:10;68.40;;;56.63;;
3726;SDS011;1879;45.876;12.300;2022-10-16T02:04:40;72.63;;;56.33;;
3726;SDS011;1879;45.876;12.300;2022-10-16T02:07:10;66.77;;;56.37;;
3726;SDS011;1879;45.876;12.300;2022-10-16T02:09:37;64.50;;;55.00;;
3726;SDS011;1879;45.876;12.300;2022-10-16T02:12:06;68.43;;;56.90;;
3726;SDS011;1879;45.876;12.300;2022-10-16T02:14:40;61.97;;;50.20;;
3726;SDS011;1879;45.876;12.300;2022-10-16T02:17:11;65.60;;;55.90;;
3726;SDS011;1879;45.876;12.300;2022-10-16T02:19:40;65.63;;;53.13;;
3726;SDS011;1879;45.876;12.300;2022-10-16T02:22:08;69.83;;;55.00;;
3726;SDS011;1879;45.876;12.300;2022-10-16T02:24:43;68.93;;;55.37;;
3726;SDS011;1879;45.876;12.300;2022-10-16T02:27:17;66.20;;;54.07;;
3726;SDS011;1879;45.876;12.300;2022-10-16T02:29:52;67.07;;;56.27;;
3726;SDS011;1879;45.876;12.300;2022-10-16T02:32:26;63.83;;;53.53;;
3726;SDS011;1879;45.876;12.300;2022-10-16T02:34:56;72.40;;;57.10;;
3726;SDS011;1879;45.876;12.300;2022-10-16T02:37:25;63.40;;;53.80;;
3726;SDS011;1879;45.876;12.300;2022-10-16T02:39:53;67.53;;;55.87;;
3726;SDS011;1879;45.876;12.300;2022-10-16T02:42:21;64.50;;;54.40;;
3726;SDS011;1879;45.876;12.300;2022-10-16T02:44:56;71.90;;;57.03;;
3726;SDS011;1879;45.876;12.300;2022-10-16T02:47:23;64.43;;;56.10;;
3726;SDS011;1879;45.876;12.300;2022-10-16T02:49:50;66.80;;;54.03;;
3726;SDS011;1879;45.876;12.300;2022-10-16T02:52:17;63.10;;;53.60;;
3726;SDS011;1879;45.876;12.300;2022-10-16T02:54:44;61.27;;;51.13;;
3726;SDS011;1879;45.876;12.300;2022-10-16T02:57:11;62.83;;;54.00;;
3726;SDS011;1879;45.876;12.300;2022-10-16T02:59:38;65.67;;;52.03;;
3726;SDS011;1879;45.876;12.300;2022-10-16T03:02:06;63.20;;;52.17;;
3726;SDS011;1879;45.876;12.300;2022-10-16T03:04:34;64.37;;;50.50;;
3726;SDS011;1879;45.876;12.300;2022-10-16T03:07:01;65.83;;;55.60;;
3726;SDS011;1879;45.876;12.300;2022-10-16T03:09:28;65.50;;;51.70;;
3726;SDS011;1879;45.876;12.300;2022-10-16T03:11:55;70.40;;;58.00;;
3726;SDS011;1879;45.876;12.300;2022-10-16T03:14:22;66.73;;;54.57;;
3726;SDS011;1879;45.876;12.300;2022-10-16T03:16:49;63.23;;;53.50;;
3726;SDS011;1879;45.876;12.300;2022-10-16T03:19:18;64.70;;;52.60;;
3726;SDS011;1879;45.876;12.300;2022-10-16T03:21:45;64.23;;;54.13;;
3726;SDS011;1879;45.876;12.300;2022-10-16T03:24:12;63.33;;;51.80;;
3726;SDS011;1879;45.876;12.300;2022-10-16T03:26:39;67.00;;;51.23;;
3726;SDS011;1879;45.876;12.300;2022-10-16T03:29:06;58.40;;;50.17;;
3726;SDS011;1879;45.876;12.300;2022-10-16T03:31:34;66.03;;;54.87;;
3726;SDS011;1879;45.876;12.300;2022-10-16T03:34:01;60.27;;;49.30;;
3726;SDS011;1879;45.876;12.300;2022-10-16T03:36:29;59.70;;;51.93;;
3726;SDS011;1879;45.876;12.300;2022-10-16T03:38:56;65.83;;;56.77;;
3726;SDS011;1879;45.876;12.300;2022-10-16T03:41:23;60.43;;;52.00;;
3726;SDS011;1879;45.876;12.300;2022-10-16T03:43:50;66.50;;;54.30;;
3726;SDS011;1879;45.876;12.300;2022-10-16T03:46:17;62.90;;;52.87;;
3726;SDS011;1879;45.876;12.300;2022-10-16T03:48:44;60.33;;;51.07;;
3726;SDS011;1879;45.876;12.300;2022-10-16T03:51:11;65.30;;;55.80;;
3726;SDS011;1879;45.876;12.300;2022-10-16T03:53:40;56.70;;;48.70;;
3726;SDS011;1879;45.876;12.300;2022-10-16T03:56:07;62.37;;;52.10;;
3726;SDS011;1879;45.876;12.300;2022-10-16T03:58:34;61.60;;;52.97;;
3726;SDS011;1879;45.876;12.300;2022-10-16T04:01:01;65.40;;;53.53;;
3726;SDS011;1879;45.876;12.300;2022-10-16T04:03:28;58.73;;;49.87;;
3726;SDS011;1879;45.876;12.300;2022-10-16T04:05:55;64.30;;;52.90;;
3726;SDS011;1879;45.876;12.300;2022-10-16T04:08:22;59.17;;;52.70;;
3726;SDS011;1879;45.876;12.300;2022-10-16T04:10:50;61.93;;;53.37;;
3726;SDS011;1879;45.876;12.300;2022-10-16T04:13:17;62.00;;;52.30;;
3726;SDS011;1879;45.876;12.300;2022-10-16T04:15:45;57.27;;;49.87;;
3726;SDS011;1879;45.876;12.300;2022-10-16T04:18:12;59.87;;;48.90;;
3726;SDS011;1879;45.876;12.300;2022-10-16T04:20:39;61.53;;;50.97;;
3726;SDS011;1879;45.876;12.300;2022-10-16T04:23:07;63.27;;;52.90;;
3726;SDS011;1879;45.876;12.300;2022-10-16T04:25:34;66.67;;;51.80;;
3726;SDS011;1879;45.876;12.300;2022-10-16T04:28:02;59.97;;;50.17;;
3726;SDS011;1879;45.876;12.300;2022-10-16T04:30:29;61.47;;;50.17;;
3726;SDS011;1879;45.876;12.300;2022-10-16T04:32:56;62.93;;;49.80;;
3726;SDS011;1879;45.876;12.300;2022-10-16T04:35:23;59.10;;;50.10;;
3726;SDS011;1879;45.876;12.300;2022-10-16T04:37:50;61.80;;;50.13;;
3726;SDS011;1879;45.876;12.300;2022-10-16T04:40:17;61.00;;;50.23;;
3726;SDS011;1879;45.876;12.300;2022-10-16T04:42:44;70.10;;;52.50;;
3726;SDS011;1879;45.876;12.300;2022-10-16T04:45:13;64.23;;;51.40;;
3726;SDS011;1879;45.876;12.300;2022-10-16T04:47:40;60.53;;;49.17;;
3726;SDS011;1879;45.876;12.300;2022-10-16T04:50:07;62.73;;;50.53;;
3726;SDS011;1879;45.876;12.300;2022-10-16T04:52:34;61.73;;;51.87;;
3726;SDS011;1879;45.876;12.300;2022-10-16T04:55:02;64.27;;;52.80;;
3726;SDS011;1879;45.876;12.300;2022-10-16T04:57:34;65.23;;;49.53;;
3726;SDS011;1879;45.876;12.300;2022-10-16T05:00:01;64.77;;;50.87;;
3726;SDS011;1879;45.876;12.300;2022-10-16T05:02:30;66.13;;;52.10;;
3726;SDS011;1879;45.876;12.300;2022-10-16T05:04:57;64.40;;;51.80;;
3726;SDS011;1879;45.876;12.300;2022-10-16T05:07:24;67.23;;;53.10;;
3726;SDS011;1879;45.876;12.300;2022-10-16T05:09:51;59.23;;;49.50;;
3726;SDS011;1879;45.876;12.300;2022-10-16T05:12:18;64.03;;;52.73;;
3726;SDS011;1879;45.876;12.300;2022-10-16T05:14:45;63.80;;;52.50;;
3726;SDS011;1879;45.876;12.300;2022-10-16T05:17:12;69.13;;;52.83;;
3726;SDS011;1879;45.876;12.300;2022-10-16T05:19:41;60.20;;;48.10;;
3726;SDS011;1879;45.876;12.300;2022-10-16T05:22:08;64.17;;;49.30;;
3726;SDS011;1879;45.876;12.300;2022-10-16T05:24:35;65.10;;;52.70;;
3726;SDS011;1879;45.876;12.300;2022-10-16T05:27:02;64.37;;;50.00;;
3726;SDS011;1879;45.876;12.300;2022-10-16T05:29:29;60.40;;;50.30;;
3726;SDS011;1879;45.876;12.300;2022-10-16T05:31:57;63.37;;;49.53;;
3726;SDS011;1879;45.876;12.300;2022-10-16T05:34:24;63.53;;;50.13;;
3726;SDS011;1879;45.876;12.300;2022-10-16T05:36:52;63.97;;;50.80;;
3726;SDS011;1879;45.876;12.300;2022-10-16T05:39:19;58.10;;;47.47;;
3726;SDS011;1879;45.876;12.300;2022-10-16T05:41:46;61.50;;;48.10;;
3726;SDS011;1879;45.876;12.300;2022-10-16T05:44:15;64.53;;;50.33;;
3726;SDS011;1879;45.876;12.300;2022-10-16T05:46:42;62.73;;;51.90;;
3726;SDS011;1879;45.876;12.300;2022-10-16T05:49:09;71.27;;;51.23;;
3726;SDS011;1879;45.876;12.300;2022-10-16T05:51:36;65.80;;;51.40;;
3726;SDS011;1879;45.876;12.300;2022-10-16T05:54:05;63.90;;;52.10;;
3726;SDS011;1879;45.876;12.300;2022-10-16T05:56:32;65.17;;;51.67;;
3726;SDS011;1879;45.876;12.300;2022-10-16T05:58:59;64.57;;;50.27;;
3726;SDS011;1879;45.876;12.300;2022-10-16T06:01:26;59.33;;;48.20;;
3726;SDS011;1879;45.876;12.300;2022-10-16T06:03:53;59.73;;;49.60;;
3726;SDS011;1879;45.876;12.300;2022-10-16T06:06:21;63.97;;;51.67;;
3726;SDS011;1879;45.876;12.300;2022-10-16T06:08:51;62.63;;;48.60;;
3726;SDS011;1879;45.876;12.300;2022-10-16T06:11:22;66.57;;;52.00;;
3726;SDS011;1879;45.876;12.300;2022-10-16T06:13:51;67.40;;;51.90;;
3726;SDS011;1879;45.876;12.300;2022-10-16T06:16:19;67.33;;;51.03;;
3726;SDS011;1879;45.876;12.300;2022-10-16T06:18:46;62.53;;;52.50;;
3726;SDS011;1879;45.876;12.300;2022-10-16T06:21:14;64.57;;;51.43;;
3726;SDS011;1879;45.876;12.300;2022-10-16T06:23:44;69.47;;;56.07;;
3726;SDS011;1879;45.876;12.300;2022-10-16T06:26:13;66.67;;;53.27;;
3726;SDS011;1879;45.876;12.300;2022-10-16T06:28:43;68.60;;;55.27;;
3726;SDS011;1879;45.876;12.300;2022-10-16T06:31:11;67.60;;;55.03;;
3726;SDS011;1879;45.876;12.300;2022-10-16T06:33:39;72.77;;;57.13;;
3726;SDS011;1879;45.876;12.300;2022-10-16T06:36:07;68.57;;;54.90;;
3726;SDS011;1879;45.876;12.300;2022-10-16T06:38:35;63.50;;;51.07;;
3726;SDS011;1879;45.876;12.300;2022-10-16T06:41:03;71.07;;;54.40;;
3726;SDS011;1879;45.876;12.300;2022-10-16T06:43:30;61.70;;;51.00;;
3726;SDS011;1879;45.876;12.300;2022-10-16T06:46:02;65.33;;;52.60;;
3726;SDS011;1879;45.876;12.300;2022-10-16T06:48:30;65.63;;;52.17;;
3726;SDS011;1879;45.876;12.300;2022-10-16T06:50:58;66.50;;;53.80;;
3726;SDS011;1879;45.876;12.300;2022-10-16T06:53:26;62.17;;;53.37;;
3726;SDS011;1879;45.876;12.300;2022-10-16T06:55:54;69.23;;;52.40;;
3726;SDS011;1879;45.876;12.300;2022-10-16T06:58:22;63.53;;;51.60;;
3726;SDS011;1879;45.876;12.300;2022-10-16T07:00:54;64.83;;;52.90;;
3726;SDS011;1879;45.876;12.300;2022-10-16T07:03:24;67.87;;;55.87;;
3726;SDS011;1879;45.876;12.300;2022-10-16T07:05:51;69.57;;;55.10;;
3726;SDS011;1879;45.876;12.300;2022-10-16T07:08:18;66.60;;;53.83;;
3726;SDS011;1879;45.876;12.300;2022-10-16T07:10:45;63.50;;;53.70;;
3726;SDS011;1879;45.876;12.300;2022-10-16T07:13:12;69.20;;;53.90;;
3726;SDS011;1879;45.876;12.300;2022-10-16T07:15:39;65.00;;;55.20;;
3726;SDS011;1879;45.876;12.300;2022-10-16T07:18:06;61.83;;;51.93;;
3726;SDS011;1879;45.876;12.300;2022-10-16T07:20:35;64.03;;;49.97;;
3726;SDS011;1879;45.876;12.300;2022-10-16T07:23:02;62.03;;;52.97;;
3726;SDS011;1879;45.876;12.300;2022-10-16T07:25:29;66.00;;;53.07;;
3726;SDS011;1879;45.876;12.300;2022-10-16T07:27:56;65.17;;;54.27;;
3726;SDS011;1879;45.876;12.300;2022-10-16T07:30:23;63.97;;;49.67;;
3726;SDS011;1879;45.876;12.300;2022-10-16T07:32:50;63.80;;;52.63;;
3726;SDS011;1879;45.876;12.300;2022-10-16T07:35:17;59.43;;;49.30;;
3726;SDS011;1879;45.876;12.300;2022-10-16T07:37:46;58.10;;;50.07;;
3726;SDS011;1879;45.876;12.300;2022-10-16T07:40:13;58.20;;;49.67;;
3726;SDS011;1879;45.876;12.300;2022-10-16T07:42:40;57.30;;;48.37;;
3726;SDS011;1879;45.876;12.300;2022-10-16T07:45:07;62.03;;;51.23;;
3726;SDS011;1879;45.876;12.300;2022-10-16T07:47:35;63.60;;;50.97;;
3726;SDS011;1879;45.876;12.300;2022-10-16T07:50:02;61.03;;;50.00;;
3726;SDS011;1879;45.876;12.300;2022-10-16T07:52:30;60.53;;;49.47;;
3726;SDS011;1879;45.876;12.300;2022-10-16T07:54:58;58.50;;;48.37;;
3726;SDS011;1879;45.876;12.300;2022-10-16T07:57:25;61.20;;;51.07;;
3726;SDS011;1879;45.876;12.300;2022-10-16T07:59:52;57.93;;;49.63;;
3726;SDS011;1879;45.876;12.300;2022-10-16T08:02:19;59.73;;;50.47;;
3726;SDS011;1879;45.876;12.300;2022-10-16T08:04:46;61.97;;;50.47;;
3726;SDS011;1879;45.876;12.300;2022-10-16T08:07:13;62.20;;;50.30;;
3726;SDS011;1879;45.876;12.300;2022-10-16T08:09:40;61.73;;;51.60;;
3726;SDS011;1879;45.876;12.300;2022-10-16T08:12:09;64.10;;;52.80;;
3726;SDS011;1879;45.876;12.300;2022-10-16T08:14:36;61.63;;;49.80;;
3726;SDS011;1879;45.876;12.300;2022-10-16T08:17:03;61.80;;;52.77;;
3726;SDS011;1879;45.876;12.300;2022-10-16T08:19:30;62.67;;;51.83;;
3726;SDS011;1879;45.876;12.300;2022-10-16T08:21:59;62.63;;;52.37;;
3726;SDS011;1879;45.876;12.300;2022-10-16T08:24:27;63.47;;;53.10;;
3726;SDS011;1879;45.876;12.300;2022-10-16T08:26:55;66.17;;;51.87;;
3726;SDS011;1879;45.876;12.300;2022-10-16T08:29:24;66.67;;;49.97;;
3726;SDS011;1879;45.876;12.300;2022-10-16T08:31:51;59.83;;;52.10;;
3726;SDS011;1879;45.876;12.300;2022-10-16T08:34:18;59.20;;;50.40;;
3726;SDS011;1879;45.876;12.300;2022-10-16T08:36:45;64.80;;;55.47;;
3726;SDS011;1879;45.876;12.300;2022-10-16T08:39:12;59.23;;;52.63;;
3726;SDS011;1879;45.876;12.300;2022-10-16T08:47:52;62.50;;;51.93;;
3726;SDS011;1879;45.876;12.300;2022-10-16T08:50:27;54.80;;;47.50;;
3726;SDS011;1879;45.876;12.300;2022-10-16T08:52:56;61.33;;;52.10;;
3726;SDS011;1879;45.876;12.300;2022-10-16T08:55:33;60.27;;;53.10;;
3726;SDS011;1879;45.876;12.300;2022-10-16T08:58:13;62.20;;;52.03;;
3726;SDS011;1879;45.876;12.300;2022-10-16T09:00:42;60.27;;;53.83;;
3726;SDS011;1879;45.876;12.300;2022-10-16T09:03:16;58.23;;;51.87;;
3726;SDS011;1879;45.876;12.300;2022-10-16T09:05:54;61.60;;;50.50;;
3726;SDS011;1879;45.876;12.300;2022-10-16T09:08:34;55.33;;;48.20;;
3726;SDS011;1879;45.876;12.300;2022-10-16T09:11:13;61.23;;;52.60;;
3726;SDS011;1879;45.876;12.300;2022-10-16T09:13:48;58.43;;;50.20;;
3726;SDS011;1879;45.876;12.300;2022-10-16T09:16:20;58.60;;;49.80;;
3726;SDS011;1879;45.876;12.300;2022-10-16T09:18:56;64.23;;;49.20;;
3726;SDS011;1879;45.876;12.300;2022-10-16T09:21:30;57.07;;;48.53;;
3726;SDS011;1879;45.876;12.300;2022-10-16T09:23:59;60.47;;;51.70;;
3726;SDS011;1879;45.876;12.300;2022-10-16T09:26:36;62.60;;;53.60;;
3726;SDS011;1879;45.876;12.300;2022-10-16T09:29:03;64.40;;;53.77;;
3726;SDS011;1879;45.876;12.300;2022-10-16T09:31:30;61.00;;;52.80;;
3726;SDS011;1879;45.876;12.300;2022-10-16T09:34:00;57.90;;;51.67;;
3726;SDS011;1879;45.876;12.300;2022-10-16T09:36:31;65.20;;;54.83;;
3726;SDS011;1879;45.876;12.300;2022-10-16T09:39:06;67.90;;;56.37;;
3726;SDS011;1879;45.876;12.300;2022-10-16T09:41:34;59.30;;;50.40;;
3726;SDS011;1879;45.876;12.300;2022-10-16T09:44:03;59.03;;;49.67;;
3726;SDS011;1879;45.876;12.300;2022-10-16T09:46:40;62.10;;;50.37;;
3726;SDS011;1879;45.876;12.300;2022-10-16T09:49:18;58.90;;;49.30;;
3726;SDS011;1879;45.876;12.300;2022-10-16T09:51:48;59.03;;;52.10;;
3726;SDS011;1879;45.876;12.300;2022-10-16T09:54:16;58.47;;;49.23;;
3726;SDS011;1879;45.876;12.300;2022-10-16T09:56:45;59.80;;;51.43;;
3726;SDS011;1879;45.876;12.300;2022-10-16T09:59:17;53.83;;;46.23;;
3726;SDS011;1879;45.876;12.300;2022-10-16T10:01:46;59.57;;;51.57;;
3726;SDS011;1879;45.876;12.300;2022-10-16T10:04:14;53.77;;;48.13;;
3726;SDS011;1879;45.876;12.300;2022-10-16T10:06:44;57.87;;;50.37;;
3726;SDS011;1879;45.876;12.300;2022-10-16T10:09:19;53.57;;;46.07;;
3726;SDS011;1879;45.876;12.300;2022-10-16T10:11:51;62.47;;;50.63;;
3726;SDS011;1879;45.876;12.300;2022-10-16T10:14:24;58.67;;;50.03;;
3726;SDS011;1879;45.876;12.300;2022-10-16T10:17:01;55.10;;;49.13;;
3726;SDS011;1879;45.876;12.300;2022-10-16T10:19:39;54.13;;;47.73;;
3726;SDS011;1879;45.876;12.300;2022-10-16T10:22:26;54.30;;;48.40;;
3726;SDS011;1879;45.876;12.300;2022-10-16T10:25:10;54.20;;;47.63;;
3726;SDS011;1879;45.876;12.300;2022-10-16T10:27:46;56.37;;;49.37;;
3726;SDS011;1879;45.876;12.300;2022-10-16T10:30:27;54.17;;;48.13;;
3726;SDS011;1879;45.876;12.300;2022-10-16T10:35:56;56.07;;;49.77;;
3726;SDS011;1879;45.876;12.300;2022-10-16T10:38:33;57.73;;;51.40;;
3726;SDS011;1879;45.876;12.300;2022-10-16T10:41:20;51.90;;;46.10;;
3726;SDS011;1879;45.876;12.300;2022-10-16T10:44:24;61.30;;;50.80;;
3726;SDS011;1879;45.876;12.300;2022-10-16T10:47:03;59.37;;;52.57;;
3726;SDS011;1879;45.876;12.300;2022-10-16T10:49:38;59.90;;;51.20;;
3726;SDS011;1879;45.876;12.300;2022-10-16T10:52:22;59.53;;;52.97;;
3726;SDS011;1879;45.876;12.300;2022-10-16T10:55:12;54.33;;;48.03;;
3726;SDS011;1879;45.876;12.300;2022-10-16T10:57:51;58.17;;;51.83;;
3726;SDS011;1879;45.876;12.300;2022-10-16T11:00:34;63.40;;;51.03;;
3726;SDS011;1879;45.876;12.300;2022-10-16T11:03:13;57.43;;;51.23;;
3726;SDS011;1879;45.876;12.300;2022-10-16T11:05:51;57.23;;;50.20;;
3726;SDS011;1879;45.876;12.300;2022-10-16T11:08:24;48.27;;;42.73;;
3726;SDS011;1879;45.876;12.300;2022-10-16T11:10:59;55.93;;;49.83;;
3726;SDS011;1879;45.876;12.300;2022-10-16T11:13:31;53.10;;;47.57;;
3726;SDS011;1879;45.876;12.300;2022-10-16T11:16:03;52.60;;;47.20;;
3726;SDS011;1879;45.876;12.300;2022-10-16T11:18:40;51.47;;;45.97;;
3726;SDS011;1879;45.876;12.300;2022-10-16T11:21:14;51.07;;;45.77;;
3726;SDS011;1879;45.876;12.300;2022-10-16T11:23:47;49.53;;;44.20;;
3726;SDS011;1879;45.876;12.300;2022-10-16T11:26:23;51.23;;;45.63;;
3726;SDS011;1879;45.876;12.300;2022-10-16T11:28:54;47.00;;;42.27;;
3726;SDS011;1879;45.876;12.300;2022-10-16T11:31:25;48.63;;;43.73;;
3726;SDS011;1879;45.876;12.300;2022-10-16T11:33:59;48.07;;;43.37;;
3726;SDS011;1879;45.876;12.300;2022-10-16T11:36:33;45.13;;;40.77;;
3726;SDS011;1879;45.876;12.300;2022-10-16T11:39:08;46.07;;;41.63;;
3726;SDS011;1879;45.876;12.300;2022-10-16T11:41:47;46.33;;;41.50;;
3726;SDS011;1879;45.876;12.300;2022-10-16T11:44:20;46.63;;;41.97;;
3726;SDS011;1879;45.876;12.300;2022-10-16T11:47:02;45.00;;;40.57;;
3726;SDS011;1879;45.876;12.300;2022-10-16T11:49:38;45.97;;;41.60;;
3726;SDS011;1879;45.876;12.300;2022-10-16T11:52:07;45.13;;;40.63;;
3726;SDS011;1879;45.876;12.300;2022-10-16T11:54:41;45.67;;;41.07;;
3726;SDS011;1879;45.876;12.300;2022-10-16T11:57:15;49.83;;;44.80;;
3726;SDS011;1879;45.876;12.300;2022-10-16T11:59:47;45.47;;;40.97;;
3726;SDS011;1879;45.876;12.300;2022-10-16T12:02:28;46.70;;;42.00;;
3726;SDS011;1879;45.876;12.300;2022-10-16T12:05:11;46.77;;;42.10;;
3726;SDS011;1879;45.876;12.300;2022-10-16T12:07:48;53.07;;;46.33;;
3726;SDS011;1879;45.876;12.300;2022-10-16T12:10:22;47.40;;;42.27;;
3726;SDS011;1879;45.876;12.300;2022-10-16T12:12:52;48.20;;;43.20;;
3726;SDS011;1879;45.876;12.300;2022-10-16T12:15:21;45.50;;;40.90;;
3726;SDS011;1879;45.876;12.300;2022-10-16T12:17:50;39.20;;;34.97;;
3726;SDS011;1879;45.876;12.300;2022-10-16T12:20:22;39.23;;;35.00;;
3726;SDS011;1879;45.876;12.300;2022-10-16T12:22:52;27.40;;;24.60;;
3726;SDS011;1879;45.876;12.300;2022-10-16T12:25:21;46.90;;;37.00;;
3726;SDS011;1879;45.876;12.300;2022-10-16T12:27:56;44.73;;;40.30;;
3726;SDS011;1879;45.876;12.300;2022-10-16T12:30:26;43.80;;;39.20;;
3726;SDS011;1879;45.876;12.300;2022-10-16T12:32:55;35.70;;;31.93;;
3726;SDS011;1879;45.876;12.300;2022-10-16T12:35:25;40.10;;;36.00;;
3726;SDS011;1879;45.876;12.300;2022-10-16T12:37:54;38.13;;;34.13;;
3726;SDS011;1879;45.876;12.300;2022-10-16T12:40:35;45.60;;;40.70;;
3726;SDS011;1879;45.876;12.300;2022-10-16T12:43:25;46.13;;;41.30;;
3726;SDS011;1879;45.876;12.300;2022-10-16T12:46:02;46.60;;;42.00;;
3726;SDS011;1879;45.876;12.300;2022-10-16T12:48:31;43.40;;;38.97;;
3726;SDS011;1879;45.876;12.300;2022-10-16T12:51:09;46.73;;;41.80;;
3726;SDS011;1879;45.876;12.300;2022-10-16T12:53:37;46.90;;;41.97;;
3726;SDS011;1879;45.876;12.300;2022-10-16T12:56:11;48.80;;;43.60;;
3726;SDS011;1879;45.876;12.300;2022-10-16T12:59:01;44.17;;;39.57;;
3726;SDS011;1879;45.876;12.300;2022-10-16T13:01:39;47.10;;;42.30;;
3726;SDS011;1879;45.876;12.300;2022-10-16T13:04:18;49.63;;;44.50;;
3726;SDS011;1879;45.876;12.300;2022-10-16T13:07:05;44.40;;;40.17;;
3726;SDS011;1879;45.876;12.300;2022-10-16T13:09:46;38.23;;;34.33;;
3726;SDS011;1879;45.876;12.300;2022-10-16T13:12:26;38.90;;;35.23;;
3726;SDS011;1879;45.876;12.300;2022-10-16T13:15:09;40.30;;;36.20;;
3726;SDS011;1879;45.876;12.300;2022-10-16T13:18:02;37.40;;;33.73;;
3726;SDS011;1879;45.876;12.300;2022-10-16T13:20:37;37.50;;;33.80;;
3726;SDS011;1879;45.876;12.300;2022-10-16T13:23:18;39.47;;;35.83;;
3726;SDS011;1879;45.876;12.300;2022-10-16T13:25:56;37.67;;;33.63;;
3726;SDS011;1879;45.876;12.300;2022-10-16T13:28:33;39.03;;;35.10;;
3726;SDS011;1879;45.876;12.300;2022-10-16T13:31:03;40.33;;;36.00;;
3726;SDS011;1879;45.876;12.300;2022-10-16T13:33:32;40.30;;;36.23;;
3726;SDS011;1879;45.876;12.300;2022-10-16T13:36:01;41.30;;;37.43;;
3726;SDS011;1879;45.876;12.300;2022-10-16T13:38:30;38.47;;;34.57;;
3726;SDS011;1879;45.876;12.300;2022-10-16T13:40:59;37.17;;;33.57;;
3726;SDS011;1879;45.876;12.300;2022-10-16T13:43:27;40.13;;;35.67;;
3726;SDS011;1879;45.876;12.300;2022-10-16T13:45:59;38.47;;;34.60;;
3726;SDS011;1879;45.876;12.300;2022-10-16T13:48:29;39.10;;;35.40;;
3726;SDS011;1879;45.876;12.300;2022-10-16T13:51:00;41.10;;;36.90;;
3726;SDS011;1879;45.876;12.300;2022-10-16T13:53:30;41.37;;;36.90;;
3726;SDS011;1879;45.876;12.300;2022-10-16T13:55:58;39.33;;;35.10;;
3726;SDS011;1879;45.876;12.300;2022-10-16T13:58:26;38.33;;;34.30;;
3726;SDS011;1879;45.876;12.300;2022-10-16T14:00:54;41.30;;;37.00;;
3726;SDS011;1879;45.876;12.300;2022-10-16T14:03:23;41.47;;;37.27;;
3726;SDS011;1879;45.876;12.300;2022-10-16T14:05:53;41.50;;;37.40;;
3726;SDS011;1879;45.876;12.300;2022-10-16T14:08:21;44.63;;;38.93;;
3726;SDS011;1879;45.876;12.300;2022-10-16T14:10:50;45.80;;;40.90;;
3726;SDS011;1879;45.876;12.300;2022-10-16T14:13:23;45.00;;;40.20;;
3726;SDS011;1879;45.876;12.300;2022-10-16T14:15:55;43.80;;;39.20;;
3726;SDS011;1879;45.876;12.300;2022-10-16T14:18:24;41.30;;;36.90;;
3726;SDS011;1879;45.876;12.300;2022-10-16T14:20:55;42.53;;;37.50;;
3726;SDS011;1879;45.876;12.300;2022-10-16T14:23:30;39.80;;;35.60;;
3726;SDS011;1879;45.876;12.300;2022-10-16T14:26:06;44.23;;;39.53;;
3726;SDS011;1879;45.876;12.300;2022-10-16T14:28:40;40.37;;;36.17;;
3726;SDS011;1879;45.876;12.300;2022-10-16T14:31:24;39.50;;;35.60;;
3726;SDS011;1879;45.876;12.300;2022-10-16T14:33:53;40.77;;;36.57;;
3726;SDS011;1879;45.876;12.300;2022-10-16T14:36:22;40.87;;;36.77;;
3726;SDS011;1879;45.876;12.300;2022-10-16T14:38:55;41.10;;;36.50;;
3726;SDS011;1879;45.876;12.300;2022-10-16T14:41:27;40.87;;;36.77;;
3726;SDS011;1879;45.876;12.300;2022-10-16T14:43:55;41.87;;;37.60;;
3726;SDS011;1879;45.876;12.300;2022-10-16T14:46:31;43.13;;;38.53;;
3726;SDS011;1879;45.876;12.300;2022-10-16T14:49:02;41.50;;;37.07;;
3726;SDS011;1879;45.876;12.300;2022-10-16T14:51:41;41.50;;;36.70;;
3726;SDS011;1879;45.876;12.300;2022-10-16T14:54:09;42.00;;;37.67;;
3726;SDS011;1879;45.876;12.300;2022-10-16T14:56:41;44.07;;;39.27;;
3726;SDS011;1879;45.876;12.300;2022-10-16T14:59:12;41.17;;;36.87;;
3726;SDS011;1879;45.876;12.300;2022-10-16T15:01:42;45.10;;;39.23;;
3726;SDS011;1879;45.876;12.300;2022-10-16T15:04:10;44.07;;;39.63;;